sensor_id;sensor_type;location;lat;lon;timestamp;pressure;altitude;pressure_sealevel;temperature;humidity
804;BME280;25687;49.976;8.240;2023-04-21T00:01:59;99843.22;;;5.95;100.00
804;BME280;25687;49.976;8.240;2023-04-21T00:04:24;99847.75;;;5.88;100.00
804;BME280;25687;49.976;8.240;2023-04-21T00:06:50;99848.56;;;5.89;100.00
804;BME280;25687;49.976;8.240;2023-04-21T00:09:17;99839.78;;;5.74;100.00
804;BME280;25687;49.976;8.240;2023-04-21T00:11:42;99844.09;;;5.72;100.00
804;BME280;25687;49.976;8.240;2023-04-21T00:14:07;99839.59;;;5.56;100.00
804;BME280;25687;49.976;8.240;2023-04-21T00:16:33;99836.97;;;5.58;100.00
804;BME280;25687;49.976;8.240;2023-04-21T00:18:58;99835.91;;;5.41;100.00
804;BME280;25687;49.976;8.240;2023-04-21T00:21:23;99834.78;;;5.48;100.00
804;BME280;25687;49.976;8.240;2023-04-21T00:23:49;99829.72;;;5.47;100.00
804;BME280;25687;49.976;8.240;2023-04-21T00:26:14;99826.72;;;5.37;100.00
804;BME280;25687;49.976;8.240;2023-04-21T00:28:40;99836.13;;;5.35;100.00
804;BME280;25687;49.976;8.240;2023-04-21T00:31:05;99824.56;;;5.26;100.00
804;BME280;25687;49.976;8.240;2023-04-21T00:33:30;99830.38;;;5.30;100.00
804;BME280;25687;49.976;8.240;2023-04-21T00:35:55;99824.56;;;5.26;100.00
804;BME280;25687;49.976;8.240;2023-04-21T00:38:23;99823.34;;;5.13;100.00
804;BME280;25687;49.976;8.240;2023-04-21T00:40:48;99829.25;;;5.13;100.00
804;BME280;25687;49.976;8.240;2023-04-21T00:43:13;99818.19;;;5.14;100.00
804;BME280;25687;49.976;8.240;2023-04-21T00:45:39;99827.66;;;5.11;100.00
804;BME280;25687;49.976;8.240;2023-04-21T00:48:05;99827.13;;;5.03;100.00
804;BME280;25687;49.976;8.240;2023-04-21T00:50:31;99820.34;;;5.01;100.00
804;BME280;25687;49.976;8.240;2023-04-21T00:52:56;99814.97;;;5.09;100.00
804;BME280;25687;49.976;8.240;2023-04-21T00:55:22;99822.56;;;5.11;100.00
804;BME280;25687;49.976;8.240;2023-04-21T00:57:49;99815.03;;;5.08;100.00
804;BME280;25687;49.976;8.240;2023-04-21T01:00:16;99806.53;;;5.07;100.00
804;BME280;25687;49.976;8.240;2023-04-21T01:02:41;99822.63;;;5.09;100.00
804;BME280;25687;49.976;8.240;2023-04-21T01:05:09;99822.69;;;5.08;100.00
804;BME280;25687;49.976;8.240;2023-04-21T01:07:35;99818.59;;;5.04;100.00
804;BME280;25687;49.976;8.240;2023-04-21T01:10:01;99817.81;;;5.01;100.00
804;BME280;25687;49.976;8.240;2023-04-21T01:12:27;99820.44;;;4.98;100.00
804;BME280;25687;49.976;8.240;2023-04-21T01:14:52;99823.94;;;4.96;100.00
804;BME280;25687;49.976;8.240;2023-04-21T01:17:18;99824.34;;;4.85;100.00
804;BME280;25687;49.976;8.240;2023-04-21T01:19:43;99814.19;;;4.83;100.00
804;BME280;25687;49.976;8.240;2023-04-21T01:22:11;99822.03;;;4.77;100.00
804;BME280;25687;49.976;8.240;2023-04-21T01:24:41;99822.09;;;4.76;100.00
804;BME280;25687;49.976;8.240;2023-04-21T01:27:14;99819.25;;;4.60;100.00
804;BME280;25687;49.976;8.240;2023-04-21T01:29:41;99819.25;;;4.60;100.00
804;BME280;25687;49.976;8.240;2023-04-21T01:32:10;99823.63;;;4.56;100.00
804;BME280;25687;49.976;8.240;2023-04-21T01:34:36;99824.56;;;4.53;100.00
804;BME280;25687;49.976;8.240;2023-04-21T01:37:01;99828.19;;;4.46;100.00
804;BME280;25687;49.976;8.240;2023-04-21T01:39:27;99826.75;;;4.39;100.00
804;BME280;25687;49.976;8.240;2023-04-21T01:41:53;99825.75;;;4.43;100.00
804;BME280;25687;49.976;8.240;2023-04-21T01:44:19;99827.44;;;4.44;100.00
804;BME280;25687;49.976;8.240;2023-04-21T01:46:45;99820.94;;;4.35;100.00
804;BME280;25687;49.976;8.240;2023-04-21T01:49:10;99823.16;;;4.45;100.00
804;BME280;25687;49.976;8.240;2023-04-21T01:51:35;99822.28;;;4.46;100.00
804;BME280;25687;49.976;8.240;2023-04-21T01:54:00;99828.09;;;4.49;100.00
804;BME280;25687;49.976;8.240;2023-04-21T01:56:26;99840.72;;;4.52;100.00
804;BME280;25687;49.976;8.240;2023-04-21T01:58:51;99834.28;;;4.42;100.00
804;BME280;25687;49.976;8.240;2023-04-21T02:01:17;99825.69;;;4.45;100.00
804;BME280;25687;49.976;8.240;2023-04-21T02:03:42;99827.63;;;4.38;100.00
804;BME280;25687;49.976;8.240;2023-04-21T02:06:08;99826.78;;;4.38;100.00
804;BME280;25687;49.976;8.240;2023-04-21T02:08:33;99822.63;;;4.35;100.00
804;BME280;25687;49.976;8.240;2023-04-21T02:11:00;99821.88;;;4.33;100.00
804;BME280;25687;49.976;8.240;2023-04-21T02:13:25;99822.16;;;4.24;100.00
804;BME280;25687;49.976;8.240;2023-04-21T02:15:51;99822.88;;;4.27;100.00
804;BME280;25687;49.976;8.240;2023-04-21T02:18:16;99816.13;;;4.26;100.00
804;BME280;25687;49.976;8.240;2023-04-21T02:20:41;99814.31;;;4.30;100.00
804;BME280;25687;49.976;8.240;2023-04-21T02:23:07;99820.47;;;4.23;100.00
804;BME280;25687;49.976;8.240;2023-04-21T02:25:32;99822.06;;;4.27;100.00
804;BME280;25687;49.976;8.240;2023-04-21T02:27:57;99812.47;;;4.08;100.00
804;BME280;25687;49.976;8.240;2023-04-21T02:30:23;99821.56;;;4.15;100.00
804;BME280;25687;49.976;8.240;2023-04-21T02:32:48;99818.78;;;4.23;100.00
804;BME280;25687;49.976;8.240;2023-04-21T02:35:13;99822.09;;;4.25;100.00
804;BME280;25687;49.976;8.240;2023-04-21T02:37:38;99824.69;;;4.24;100.00
804;BME280;25687;49.976;8.240;2023-04-21T02:40:04;99830.53;;;4.27;100.00
804;BME280;25687;49.976;8.240;2023-04-21T02:42:31;99829.72;;;4.27;100.00
804;BME280;25687;49.976;8.240;2023-04-21T02:44:57;99829.84;;;4.22;100.00
804;BME280;25687;49.976;8.240;2023-04-21T02:47:22;99830.59;;;4.24;100.00
804;BME280;25687;49.976;8.240;2023-04-21T02:49:47;99829.13;;;4.18;100.00
804;BME280;25687;49.976;8.240;2023-04-21T02:52:12;99830.03;;;4.16;100.00
804;BME280;25687;49.976;8.240;2023-04-21T02:54:38;99825.09;;;4.11;100.00
804;BME280;25687;49.976;8.240;2023-04-21T02:57:03;99824.31;;;4.09;100.00
804;BME280;25687;49.976;8.240;2023-04-21T02:59:28;99826.91;;;4.08;100.00
804;BME280;25687;49.976;8.240;2023-04-21T03:01:54;99825.59;;;3.96;100.00
804;BME280;25687;49.976;8.240;2023-04-21T03:04:19;99824.06;;;3.90;100.00
804;BME280;25687;49.976;8.240;2023-04-21T03:06:45;99831.94;;;3.82;100.00
804;BME280;25687;49.976;8.240;2023-04-21T03:09:10;99832.13;;;3.76;100.00
804;BME280;25687;49.976;8.240;2023-04-21T03:11:36;99830.59;;;3.70;100.00
804;BME280;25687;49.976;8.240;2023-04-21T03:14:01;99839.22;;;3.66;100.00
804;BME280;25687;49.976;8.240;2023-04-21T03:16:26;99848.59;;;3.64;100.00
804;BME280;25687;49.976;8.240;2023-04-21T03:18:52;99842.75;;;3.62;100.00
804;BME280;25687;49.976;8.240;2023-04-21T03:21:17;99847.06;;;3.59;100.00
804;BME280;25687;49.976;8.240;2023-04-21T03:23:42;99838.84;;;3.50;100.00
804;BME280;25687;49.976;8.240;2023-04-21T03:26:08;99832.06;;;3.49;100.00
804;BME280;25687;49.976;8.240;2023-04-21T03:28:34;99836.34;;;3.49;100.00
804;BME280;25687;49.976;8.240;2023-04-21T03:30:59;99838.97;;;3.46;100.00
804;BME280;25687;49.976;8.240;2023-04-21T03:33:24;99840.00;;;3.40;100.00
804;BME280;25687;49.976;8.240;2023-04-21T03:35:50;99838.22;;;3.42;100.00
804;BME280;25687;49.976;8.240;2023-04-21T03:38:15;99834.00;;;3.41;100.00
804;BME280;25687;49.976;8.240;2023-04-21T03:40:40;99839.19;;;3.38;100.00
804;BME280;25687;49.976;8.240;2023-04-21T03:43:05;99834.91;;;3.40;100.00
804;BME280;25687;49.976;8.240;2023-04-21T03:45:31;99831.63;;;3.36;100.00
804;BME280;25687;49.976;8.240;2023-04-21T03:47:56;99832.66;;;3.29;100.00
804;BME280;25687;49.976;8.240;2023-04-21T03:50:21;99828.44;;;3.28;100.00
804;BME280;25687;49.976;8.240;2023-04-21T03:52:47;99828.56;;;3.23;100.00
804;BME280;25687;49.976;8.240;2023-04-21T03:55:12;99821.13;;;3.17;100.00
804;BME280;25687;49.976;8.240;2023-04-21T03:57:39;99820.34;;;3.15;100.00
804;BME280;25687;49.976;8.240;2023-04-21T04:00:06;99825.38;;;3.17;100.00
804;BME280;25687;49.976;8.240;2023-04-21T04:02:34;99815.28;;;3.14;100.00
804;BME280;25687;49.976;8.240;2023-04-21T04:04:59;99814.53;;;3.12;100.00
804;BME280;25687;49.976;8.240;2023-04-21T04:07:24;99812.03;;;3.10;100.00
804;BME280;25687;49.976;8.240;2023-04-21T04:09:50;99824.00;;;3.06;100.00
804;BME280;25687;49.976;8.240;2023-04-21T04:12:15;99823.31;;;3.00;100.00
804;BME280;25687;49.976;8.240;2023-04-21T04:14:40;99830.16;;;2.98;100.00
804;BME280;25687;49.976;8.240;2023-04-21T04:17:06;99825.09;;;2.98;100.00
804;BME280;25687;49.976;8.240;2023-04-21T04:19:31;99820.25;;;2.88;100.00
804;BME280;25687;49.976;8.240;2023-04-21T04:22:00;99820.44;;;2.81;100.00
804;BME280;25687;49.976;8.240;2023-04-21T04:24:25;99818.69;;;2.83;100.00
804;BME280;25687;49.976;8.240;2023-04-21T04:26:51;99811.03;;;2.84;100.00
804;BME280;25687;49.976;8.240;2023-04-21T04:29:18;99810.41;;;2.76;100.00
804;BME280;25687;49.976;8.240;2023-04-21T04:31:44;99816.25;;;2.80;100.00
804;BME280;25687;49.976;8.240;2023-04-21T04:34:09;99818.84;;;2.77;100.00
804;BME280;25687;49.976;8.240;2023-04-21T04:36:35;99818.81;;;2.78;100.00
804;BME280;25687;49.976;8.240;2023-04-21T04:39:00;99821.38;;;2.77;100.00
804;BME280;25687;49.976;8.240;2023-04-21T04:41:28;99812.94;;;2.76;100.00
804;BME280;25687;49.976;8.240;2023-04-21T04:43:54;99812.88;;;2.79;100.00
804;BME280;25687;49.976;8.240;2023-04-21T04:46:21;99818.81;;;2.78;100.00
804;BME280;25687;49.976;8.240;2023-04-21T04:48:48;99815.59;;;2.73;100.00
804;BME280;25687;49.976;8.240;2023-04-21T04:51:13;99822.19;;;2.79;100.00
804;BME280;25687;49.976;8.240;2023-04-21T04:53:39;99823.94;;;2.77;100.00
804;BME280;25687;49.976;8.240;2023-04-21T04:56:04;99820.56;;;2.76;100.00
804;BME280;25687;49.976;8.240;2023-04-21T04:58:30;99818.91;;;2.75;100.00
804;BME280;25687;49.976;8.240;2023-04-21T05:00:55;99822.19;;;2.79;100.00
804;BME280;25687;49.976;8.240;2023-04-21T05:03:20;99822.13;;;2.82;100.00
804;BME280;25687;49.976;8.240;2023-04-21T05:05:45;99823.38;;;2.67;100.00
804;BME280;25687;49.976;8.240;2023-04-21T05:08:11;99825.59;;;2.78;100.00
804;BME280;25687;49.976;8.240;2023-04-21T05:10:36;99834.81;;;2.82;100.00
804;BME280;25687;49.976;8.240;2023-04-21T05:13:02;99828.81;;;2.84;100.00
804;BME280;25687;49.976;8.240;2023-04-21T05:15:27;99830.50;;;2.85;100.00
804;BME280;25687;49.976;8.240;2023-04-21T05:17:52;99832.88;;;2.90;100.00
804;BME280;25687;49.976;8.240;2023-04-21T05:20:17;99831.91;;;2.96;100.00
804;BME280;25687;49.976;8.240;2023-04-21T05:22:43;99826.78;;;2.97;100.00
804;BME280;25687;49.976;8.240;2023-04-21T05:25:09;99823.88;;;3.10;100.00
804;BME280;25687;49.976;8.240;2023-04-21T05:27:36;99824.50;;;3.18;100.00
804;BME280;25687;49.976;8.240;2023-04-21T05:30:01;99820.94;;;3.25;100.00
804;BME280;25687;49.976;8.240;2023-04-21T05:32:26;99823.94;;;3.38;100.00
804;BME280;25687;49.976;8.240;2023-04-21T05:34:53;99827.22;;;3.42;100.00
804;BME280;25687;49.976;8.240;2023-04-21T05:37:18;99824.69;;;3.42;100.00
804;BME280;25687;49.976;8.240;2023-04-21T05:39:43;99828.03;;;3.42;100.00
804;BME280;25687;49.976;8.240;2023-04-21T05:42:09;99829.47;;;3.52;100.00
804;BME280;25687;49.976;8.240;2023-04-21T05:44:35;99838.97;;;3.74;100.00
804;BME280;25687;49.976;8.240;2023-04-21T05:47:00;99834.16;;;3.93;100.00
804;BME280;25687;49.976;8.240;2023-04-21T05:49:25;99829.75;;;3.98;100.00
804;BME280;25687;49.976;8.240;2023-04-21T05:51:51;99827.97;;;4.00;100.00
804;BME280;25687;49.976;8.240;2023-04-21T05:54:16;99829.31;;;4.12;100.00
804;BME280;25687;49.976;8.240;2023-04-21T05:56:42;99828.63;;;4.07;100.00
804;BME280;25687;49.976;8.240;2023-04-21T05:59:07;99825.97;;;4.37;100.00
804;BME280;25687;49.976;8.240;2023-04-21T06:01:32;99833.13;;;4.76;100.00
804;BME280;25687;49.976;8.240;2023-04-21T06:03:57;99829.44;;;4.85;100.00
804;BME280;25687;49.976;8.240;2023-04-21T06:06:25;99827.66;;;5.11;100.00
804;BME280;25687;49.976;8.240;2023-04-21T06:08:50;99826.97;;;5.29;100.00
804;BME280;25687;49.976;8.240;2023-04-21T06:11:15;99819.94;;;5.36;100.00
804;BME280;25687;49.976;8.240;2023-04-21T06:13:41;99818.34;;;5.78;100.00
804;BME280;25687;49.976;8.240;2023-04-21T06:16:06;99814.81;;;6.25;100.00
804;BME280;25687;49.976;8.240;2023-04-21T06:18:31;99828.63;;;6.41;100.00
804;BME280;25687;49.976;8.240;2023-04-21T06:20:56;99826.88;;;6.21;100.00
804;BME280;25687;49.976;8.240;2023-04-21T06:23:22;99816.75;;;6.40;100.00
804;BME280;25687;49.976;8.240;2023-04-21T06:25:58;99821.56;;;6.67;100.00
804;BME280;25687;49.976;8.240;2023-04-21T06:28:24;99821.63;;;6.86;100.00
804;BME280;25687;49.976;8.240;2023-04-21T06:30:49;99824.69;;;7.14;100.00
804;BME280;25687;49.976;8.240;2023-04-21T06:33:15;99827.38;;;7.30;100.00
804;BME280;25687;49.976;8.240;2023-04-21T06:35:40;99825.97;;;7.41;100.00
804;BME280;25687;49.976;8.240;2023-04-21T06:38:07;99828.66;;;7.57;100.00
804;BME280;25687;49.976;8.240;2023-04-21T06:40:33;99834.00;;;7.34;100.00
804;BME280;25687;49.976;8.240;2023-04-21T06:42:58;99831.94;;;7.42;100.00
804;BME280;25687;49.976;8.240;2023-04-21T06:45:23;99840.31;;;7.26;100.00
804;BME280;25687;49.976;8.240;2023-04-21T06:47:48;99836.84;;;7.08;100.00
804;BME280;25687;49.976;8.240;2023-04-21T06:50:14;99835.88;;;7.30;100.00
804;BME280;25687;49.976;8.240;2023-04-21T06:52:40;99848.22;;;7.22;100.00
804;BME280;25687;49.976;8.240;2023-04-21T06:55:05;99836.66;;;7.32;100.00
804;BME280;25687;49.976;8.240;2023-04-21T06:57:31;99835.69;;;7.35;100.00
804;BME280;25687;49.976;8.240;2023-04-21T06:59:56;99826.81;;;7.61;100.00
804;BME280;25687;49.976;8.240;2023-04-21T07:02:21;99829.84;;;7.69;100.00
804;BME280;25687;49.976;8.240;2023-04-21T07:04:47;99834.19;;;7.67;100.00
804;BME280;25687;49.976;8.240;2023-04-21T07:07:12;99832.94;;;7.76;100.00
804;BME280;25687;49.976;8.240;2023-04-21T07:09:38;99833.50;;;8.00;100.00
804;BME280;25687;49.976;8.240;2023-04-21T07:12:03;99823.56;;;7.94;100.00
804;BME280;25687;49.976;8.240;2023-04-21T07:14:28;99836.19;;;7.97;100.00
804;BME280;25687;49.976;8.240;2023-04-21T07:16:54;99840.59;;;7.95;100.00
804;BME280;25687;49.976;8.240;2023-04-21T07:19:21;99832.53;;;7.66;100.00
804;BME280;25687;49.976;8.240;2023-04-21T07:21:46;99832.94;;;7.94;100.00
804;BME280;25687;49.976;8.240;2023-04-21T07:24:12;99823.66;;;8.10;100.00
804;BME280;25687;49.976;8.240;2023-04-21T07:26:37;99820.03;;;8.49;100.00
804;BME280;25687;49.976;8.240;2023-04-21T07:29:02;99821.81;;;8.98;100.00
804;BME280;25687;49.976;8.240;2023-04-21T07:31:27;99819.69;;;9.55;100.00
804;BME280;25687;49.976;8.240;2023-04-21T07:33:53;99822.25;;;9.23;100.00
804;BME280;25687;49.976;8.240;2023-04-21T07:36:18;99822.22;;;9.07;100.00
804;BME280;25687;49.976;8.240;2023-04-21T07:38:44;99827.69;;;8.84;100.00
804;BME280;25687;49.976;8.240;2023-04-21T07:41:10;99826.69;;;8.53;100.00
804;BME280;25687;49.976;8.240;2023-04-21T07:43:36;99830.44;;;8.46;100.00
804;BME280;25687;49.976;8.240;2023-04-21T07:46:01;99830.19;;;8.33;100.00
804;BME280;25687;49.976;8.240;2023-04-21T07:48:27;99830.56;;;8.43;100.00
804;BME280;25687;49.976;8.240;2023-04-21T07:50:53;99832.53;;;8.20;100.00
804;BME280;25687;49.976;8.240;2023-04-21T07:53:18;99832.75;;;8.16;100.00
804;BME280;25687;49.976;8.240;2023-04-21T07:55:43;99838.41;;;8.40;100.00
804;BME280;25687;49.976;8.240;2023-04-21T07:58:09;99842.66;;;8.59;100.00
804;BME280;25687;49.976;8.240;2023-04-21T08:00:34;99825.84;;;8.86;100.00
804;BME280;25687;49.976;8.240;2023-04-21T08:03:00;99827.97;;;9.12;100.00
804;BME280;25687;49.976;8.240;2023-04-21T08:05:25;99817.91;;;8.91;100.00
804;BME280;25687;49.976;8.240;2023-04-21T08:07:51;99811.75;;;9.27;100.00
804;BME280;25687;49.976;8.240;2023-04-21T08:10:16;99802.81;;;9.18;100.00
804;BME280;25687;49.976;8.240;2023-04-21T08:12:41;99813.06;;;9.50;100.00
804;BME280;25687;49.976;8.240;2023-04-21T08:15:07;99803.81;;;9.78;100.00
804;BME280;25687;49.976;8.240;2023-04-21T08:17:33;99811.03;;;9.88;100.00
804;BME280;25687;49.976;8.240;2023-04-21T08:19:59;99817.25;;;9.83;100.00
804;BME280;25687;49.976;8.240;2023-04-21T08:22:25;99820.28;;;10.06;100.00
804;BME280;25687;49.976;8.240;2023-04-21T08:24:50;99816.66;;;10.84;100.00
804;BME280;25687;49.976;8.240;2023-04-21T08:27:15;99811.34;;;11.29;100.00
804;BME280;25687;49.976;8.240;2023-04-21T08:29:41;99811.56;;;12.34;100.00
804;BME280;25687;49.976;8.240;2023-04-21T08:32:06;99811.13;;;12.01;100.00
804;BME280;25687;49.976;8.240;2023-04-21T08:34:31;99806.50;;;12.19;100.00
804;BME280;25687;49.976;8.240;2023-04-21T08:36:57;99803.16;;;11.64;100.00
804;BME280;25687;49.976;8.240;2023-04-21T08:39:22;99802.19;;;11.92;100.00
804;BME280;25687;49.976;8.240;2023-04-21T08:41:48;99806.06;;;12.13;100.00
804;BME280;25687;49.976;8.240;2023-04-21T08:44:14;99806.31;;;11.82;100.00
804;BME280;25687;49.976;8.240;2023-04-21T08:46:40;99813.66;;;11.61;100.00
804;BME280;25687;49.976;8.240;2023-04-21T08:49:08;99806.69;;;12.29;100.00
804;BME280;25687;49.976;8.240;2023-04-21T08:51:34;99798.16;;;12.41;100.00
804;BME280;25687;49.976;8.240;2023-04-21T08:53:59;99793.84;;;13.91;100.00
804;BME280;25687;49.976;8.240;2023-04-21T08:56:25;99789.22;;;15.64;100.00
804;BME280;25687;49.976;8.240;2023-04-21T08:58:51;99790.38;;;16.04;100.00
804;BME280;25687;49.976;8.240;2023-04-21T09:01:16;99785.63;;;17.02;98.81
804;BME280;25687;49.976;8.240;2023-04-21T09:03:41;99781.16;;;17.14;99.34
804;BME280;25687;49.976;8.240;2023-04-21T09:06:08;99774.59;;;18.08;91.54
804;BME280;25687;49.976;8.240;2023-04-21T09:08:37;99774.16;;;18.98;89.66
804;BME280;25687;49.976;8.240;2023-04-21T09:11:04;99781.06;;;20.24;74.02
804;BME280;25687;49.976;8.240;2023-04-21T09:13:34;99774.47;;;21.48;59.06
804;BME280;25687;49.976;8.240;2023-04-21T09:16:02;99787.06;;;23.07;56.08
804;BME280;25687;49.976;8.240;2023-04-21T09:18:29;99781.69;;;23.31;49.28
804;BME280;25687;49.976;8.240;2023-04-21T09:21:15;99786.19;;;24.22;48.78
804;BME280;25687;49.976;8.240;2023-04-21T09:23:51;99783.56;;;25.25;41.83
804;BME280;25687;49.976;8.240;2023-04-21T09:26:18;99783.28;;;23.41;47.54
804;BME280;25687;49.976;8.240;2023-04-21T09:28:46;99786.97;;;21.71;52.11
804;BME280;25687;49.976;8.240;2023-04-21T09:31:19;99785.72;;;22.79;51.50
804;BME280;25687;49.976;8.240;2023-04-21T09:33:52;99777.72;;;22.16;51.82
804;BME280;25687;49.976;8.240;2023-04-21T09:36:24;99780.28;;;24.05;44.47
804;BME280;25687;49.976;8.240;2023-04-21T09:41:19;99771.44;;;25.46;39.04
804;BME280;25687;49.976;8.240;2023-04-21T09:43:44;99776.06;;;25.22;39.68
804;BME280;25687;49.976;8.240;2023-04-21T09:46:11;99764.88;;;23.64;43.05
804;BME280;25687;49.976;8.240;2023-04-21T09:48:39;99772.50;;;23.97;42.84
804;BME280;25687;49.976;8.240;2023-04-21T09:51:06;99770.91;;;22.95;45.55
804;BME280;25687;49.976;8.240;2023-04-21T09:53:33;99775.41;;;21.14;54.47
804;BME280;25687;49.976;8.240;2023-04-21T09:56:01;99763.06;;;21.82;55.18
804;BME280;25687;49.976;8.240;2023-04-21T09:58:34;99763.22;;;21.64;52.56
804;BME280;25687;49.976;8.240;2023-04-21T10:01:02;99762.78;;;20.93;55.96
804;BME280;25687;49.976;8.240;2023-04-21T10:03:29;99758.59;;;22.95;48.10
804;BME280;25687;49.976;8.240;2023-04-21T10:08:20;99747.47;;;22.05;50.28
804;BME280;25687;49.976;8.240;2023-04-21T10:10:47;99748.47;;;23.24;51.03
804;BME280;25687;49.976;8.240;2023-04-21T10:13:13;99741.41;;;23.62;44.77
804;BME280;25687;49.976;8.240;2023-04-21T10:15:40;99745.44;;;20.84;56.13
804;BME280;25687;49.976;8.240;2023-04-21T10:18:20;99750.88;;;18.21;76.80
804;BME280;25687;49.976;8.240;2023-04-21T10:21:16;99749.06;;;20.22;70.44
804;BME280;25687;49.976;8.240;2023-04-21T10:23:49;99746.50;;;19.59;73.56
804;BME280;25687;49.976;8.240;2023-04-21T10:26:22;99741.94;;;21.34;59.18
804;BME280;25687;49.976;8.240;2023-04-21T10:36:32;99755.94;;;16.02;94.60
804;BME280;25687;49.976;8.240;2023-04-21T10:39:02;99740.34;;;15.81;100.00
804;BME280;25687;49.976;8.240;2023-04-21T10:41:34;99744.47;;;16.05;100.00
804;BME280;25687;49.976;8.240;2023-04-21T10:44:20;99736.06;;;14.94;100.00
804;BME280;25687;49.976;8.240;2023-04-21T10:46:47;99737.91;;;15.14;100.00
804;BME280;25687;49.976;8.240;2023-04-21T10:49:24;99731.50;;;14.75;100.00
804;BME280;25687;49.976;8.240;2023-04-21T10:57:08;99730.31;;;14.11;100.00
804;BME280;25687;49.976;8.240;2023-04-21T10:59:34;99719.03;;;14.46;100.00
804;BME280;25687;49.976;8.240;2023-04-21T11:02:01;99710.47;;;14.34;100.00
804;BME280;25687;49.976;8.240;2023-04-21T11:04:26;99706.78;;;14.14;100.00
804;BME280;25687;49.976;8.240;2023-04-21T11:07:04;99697.97;;;14.05;100.00
804;BME280;25687;49.976;8.240;2023-04-21T11:09:34;99695.16;;;14.19;100.00
804;BME280;25687;49.976;8.240;2023-04-21T11:12:04;99696.97;;;13.72;100.00
804;BME280;25687;49.976;8.240;2023-04-21T11:14:32;99690.19;;;13.47;100.00
804;BME280;25687;49.976;8.240;2023-04-21T11:16:57;99690.03;;;13.72;100.00
804;BME280;25687;49.976;8.240;2023-04-21T11:19:23;99696.09;;;14.18;100.00
804;BME280;25687;49.976;8.240;2023-04-21T11:21:50;99706.44;;;14.30;100.00
804;BME280;25687;49.976;8.240;2023-04-21T11:24:17;99693.38;;;14.09;100.00
804;BME280;25687;49.976;8.240;2023-04-21T11:26:42;99695.63;;;14.25;100.00
804;BME280;25687;49.976;8.240;2023-04-21T11:29:09;99695.03;;;14.10;100.00
804;BME280;25687;49.976;8.240;2023-04-21T11:31:35;99697.72;;;13.85;100.00
804;BME280;25687;49.976;8.240;2023-04-21T11:34:02;99691.31;;;13.67;100.00
804;BME280;25687;49.976;8.240;2023-04-21T11:36:35;99684.41;;;13.79;100.00
804;BME280;25687;49.976;8.240;2023-04-21T11:39:08;99684.72;;;13.63;100.00
804;BME280;25687;49.976;8.240;2023-04-21T11:41:35;99685.25;;;13.79;100.00
804;BME280;25687;49.976;8.240;2023-04-21T11:44:01;99679.72;;;13.84;100.00
804;BME280;25687;49.976;8.240;2023-04-21T11:46:27;99674.66;;;13.82;100.00
804;BME280;25687;49.976;8.240;2023-04-21T11:48:59;99671.88;;;13.85;100.00
804;BME280;25687;49.976;8.240;2023-04-21T11:51:25;99667.63;;;13.96;100.00
804;BME280;25687;49.976;8.240;2023-04-21T11:53:52;99664.34;;;14.16;100.00
804;BME280;25687;49.976;8.240;2023-04-21T11:56:19;99662.34;;;14.09;100.00
804;BME280;25687;49.976;8.240;2023-04-21T11:58:46;99656.00;;;14.35;100.00
804;BME280;25687;49.976;8.240;2023-04-21T12:01:15;99647.84;;;14.74;100.00
804;BME280;25687;49.976;8.240;2023-04-21T12:03:41;99653.81;;;14.75;100.00
804;BME280;25687;49.976;8.240;2023-04-21T12:06:07;99659.06;;;15.07;100.00
804;BME280;25687;49.976;8.240;2023-04-21T12:08:32;99643.44;;;14.97;100.00
804;BME280;25687;49.976;8.240;2023-04-21T12:10:58;99657.47;;;14.83;100.00
804;BME280;25687;49.976;8.240;2023-04-21T12:13:27;99642.66;;;14.74;100.00
804;BME280;25687;49.976;8.240;2023-04-21T12:15:53;99639.63;;;15.01;100.00
804;BME280;25687;49.976;8.240;2023-04-21T12:18:18;99639.66;;;15.23;100.00
804;BME280;25687;49.976;8.240;2023-04-21T12:20:51;99635.81;;;15.17;100.00
804;BME280;25687;49.976;8.240;2023-04-21T12:23:17;99634.41;;;15.34;100.00
804;BME280;25687;49.976;8.240;2023-04-21T12:25:42;99634.00;;;15.81;100.00
804;BME280;25687;49.976;8.240;2023-04-21T12:28:09;99644.97;;;16.16;100.00
804;BME280;25687;49.976;8.240;2023-04-21T12:30:35;99643.72;;;16.00;100.00
804;BME280;25687;49.976;8.240;2023-04-21T12:33:00;99631.69;;;15.78;100.00
804;BME280;25687;49.976;8.240;2023-04-21T12:35:25;99638.28;;;16.13;100.00
804;BME280;25687;49.976;8.240;2023-04-21T12:37:51;99630.66;;;16.11;100.00
804;BME280;25687;49.976;8.240;2023-04-21T12:40:16;99638.38;;;16.02;100.00
804;BME280;25687;49.976;8.240;2023-04-21T12:42:42;99637.00;;;16.38;100.00
804;BME280;25687;49.976;8.240;2023-04-21T12:45:07;99641.41;;;16.07;97.92
804;BME280;25687;49.976;8.240;2023-04-21T12:47:33;99631.44;;;16.12;100.00
804;BME280;25687;49.976;8.240;2023-04-21T12:49:59;99631.78;;;15.88;100.00
804;BME280;25687;49.976;8.240;2023-04-21T12:52:24;99634.31;;;15.57;100.00
804;BME280;25687;49.976;8.240;2023-04-21T12:54:50;99632.91;;;15.53;100.00
804;BME280;25687;49.976;8.240;2023-04-21T12:57:15;99622.91;;;15.27;100.00
804;BME280;25687;49.976;8.240;2023-04-21T12:59:40;99623.75;;;15.48;100.00
804;BME280;25687;49.976;8.240;2023-04-21T13:02:06;99621.19;;;15.79;100.00
804;BME280;25687;49.976;8.240;2023-04-21T13:04:31;99617.03;;;16.29;100.00
804;BME280;25687;49.976;8.240;2023-04-21T13:06:56;99616.69;;;16.43;100.00
804;BME280;25687;49.976;8.240;2023-04-21T13:09:22;99620.03;;;16.24;99.62
804;BME280;25687;49.976;8.240;2023-04-21T13:11:47;99616.44;;;16.16;100.00
804;BME280;25687;49.976;8.240;2023-04-21T13:14:12;99626.66;;;16.07;100.00
804;BME280;25687;49.976;8.240;2023-04-21T13:16:39;99626.09;;;16.04;100.00
804;BME280;25687;49.976;8.240;2023-04-21T13:19:04;99619.91;;;15.74;100.00
804;BME280;25687;49.976;8.240;2023-04-21T13:21:30;99623.25;;;15.55;100.00
804;BME280;25687;49.976;8.240;2023-04-21T13:23:56;99609.72;;;15.51;100.00
804;BME280;25687;49.976;8.240;2023-04-21T13:26:22;99614.94;;;15.61;100.00
804;BME280;25687;49.976;8.240;2023-04-21T13:28:47;99604.19;;;15.65;100.00
804;BME280;25687;49.976;8.240;2023-04-21T13:31:13;99606.16;;;15.73;100.00
804;BME280;25687;49.976;8.240;2023-04-21T13:33:39;99603.69;;;15.72;100.00